Terminal Aerodrome Forecast
Issued by NWS Springfield, MO

Home | Current Version | Previous Version | Text Only | Print | Product List | Glossary On
Versions: 1 2 3 4 5 6 7 8 9 10 11 12 13 14 15 16 17 18 19 20 21 22 23 24 25
000
FTUS43 KSGF 251723
TAFSGF
TAF
KSGF 251723Z 2518/2618 16012G17KT P6SM SCT060
     FM252300 18012KT P6SM SCT050
     FM260700 16010KT P6SM SCT020 BKN035
     FM261500 17014KT P6SM SCT030 BKN045=

USA.gov is the U.S. government's official web portal to all federal, state and local government web resources and services.